sensor_id;sensor_type;location;lat;lon;timestamp;P1;durP1;ratioP1;P2;durP2;ratioP2
21761;SDS011;11203;50.870;20.682;2023-03-01T00:01:32;373.30;;;168.73;;
21761;SDS011;11203;50.870;20.682;2023-03-01T00:03:58;362.85;;;171.73;;
21761;SDS011;11203;50.870;20.682;2023-03-01T00:06:25;377.27;;;171.18;;
21761;SDS011;11203;50.870;20.682;2023-03-01T00:08:53;361.50;;;170.48;;
21761;SDS011;11203;50.870;20.682;2023-03-01T00:11:20;384.13;;;174.35;;
21761;SDS011;11203;50.870;20.682;2023-03-01T00:13:56;339.70;;;158.63;;
21761;SDS011;11203;50.870;20.682;2023-03-01T00:16:28;345.80;;;165.68;;
21761;SDS011;11203;50.870;20.682;2023-03-01T00:18:58;349.70;;;164.55;;
21761;SDS011;11203;50.870;20.682;2023-03-01T00:21:25;345.67;;;167.18;;
21761;SDS011;11203;50.870;20.682;2023-03-01T00:23:53;331.92;;;153.77;;
21761;SDS011;11203;50.870;20.682;2023-03-01T00:26:21;328.63;;;154.90;;
21761;SDS011;11203;50.870;20.682;2023-03-01T00:28:49;336.52;;;158.77;;
21761;SDS011;11203;50.870;20.682;2023-03-01T00:31:17;319.08;;;148.95;;
21761;SDS011;11203;50.870;20.682;2023-03-01T00:33:46;325.58;;;149.38;;
21761;SDS011;11203;50.870;20.682;2023-03-01T00:36:13;323.60;;;148.23;;
21761;SDS011;11203;50.870;20.682;2023-03-01T00:38:44;348.23;;;192.40;;
21761;SDS011;11203;50.870;20.682;2023-03-01T00:41:15;320.20;;;156.45;;
21761;SDS011;11203;50.870;20.682;2023-03-01T00:43:43;325.33;;;148.68;;
21761;SDS011;11203;50.870;20.682;2023-03-01T00:46:11;324.92;;;150.70;;
21761;SDS011;11203;50.870;20.682;2023-03-01T00:48:40;311.65;;;148.82;;
21761;SDS011;11203;50.870;20.682;2023-03-01T00:53:34;320.15;;;149.43;;
21761;SDS011;11203;50.870;20.682;2023-03-01T00:56:01;322.52;;;154.15;;
21761;SDS011;11203;50.870;20.682;2023-03-01T00:58:29;323.40;;;151.82;;
21761;SDS011;11203;50.870;20.682;2023-03-01T01:00:56;326.30;;;150.50;;
21761;SDS011;11203;50.870;20.682;2023-03-01T01:03:22;333.23;;;156.65;;
21761;SDS011;11203;50.870;20.682;2023-03-01T01:05:51;383.98;;;186.82;;
21761;SDS011;11203;50.870;20.682;2023-03-01T01:08:18;414.52;;;207.13;;
21761;SDS011;11203;50.870;20.682;2023-03-01T01:10:46;371.42;;;174.05;;
21761;SDS011;11203;50.870;20.682;2023-03-01T01:13:14;326.02;;;154.13;;
21761;SDS011;11203;50.870;20.682;2023-03-01T01:15:41;364.15;;;170.32;;
21761;SDS011;11203;50.870;20.682;2023-03-01T01:18:07;346.08;;;162.15;;
21761;SDS011;11203;50.870;20.682;2023-03-01T01:20:34;323.80;;;155.43;;
21761;SDS011;11203;50.870;20.682;2023-03-01T01:23:00;320.60;;;146.45;;
21761;SDS011;11203;50.870;20.682;2023-03-01T01:25:27;338.77;;;155.85;;
21761;SDS011;11203;50.870;20.682;2023-03-01T01:27:52;335.10;;;152.43;;
21761;SDS011;11203;50.870;20.682;2023-03-01T01:30:19;319.70;;;149.98;;
21761;SDS011;11203;50.870;20.682;2023-03-01T01:32:45;303.75;;;143.40;;
21761;SDS011;11203;50.870;20.682;2023-03-01T01:35:11;304.15;;;144.63;;
21761;SDS011;11203;50.870;20.682;2023-03-01T01:37:37;296.80;;;139.27;;
21761;SDS011;11203;50.870;20.682;2023-03-01T01:40:03;334.35;;;154.20;;
21761;SDS011;11203;50.870;20.682;2023-03-01T01:42:30;327.33;;;148.63;;
21761;SDS011;11203;50.870;20.682;2023-03-01T01:45:24;317.70;;;144.30;;
21761;SDS011;11203;50.870;20.682;2023-03-01T01:47:54;371.05;;;170.55;;
21761;SDS011;11203;50.870;20.682;2023-03-01T01:50:26;371.35;;;166.77;;
21761;SDS011;11203;50.870;20.682;2023-03-01T01:53:03;353.10;;;167.18;;
21761;SDS011;11203;50.870;20.682;2023-03-01T01:55:36;405.27;;;209.25;;
21761;SDS011;11203;50.870;20.682;2023-03-01T01:58:08;478.08;;;259.40;;
21761;SDS011;11203;50.870;20.682;2023-03-01T02:00:37;392.63;;;208.82;;
21761;SDS011;11203;50.870;20.682;2023-03-01T02:03:14;360.48;;;175.35;;
21761;SDS011;11203;50.870;20.682;2023-03-01T02:08:40;333.52;;;155.05;;
21761;SDS011;11203;50.870;20.682;2023-03-01T02:11:08;347.73;;;160.35;;
21761;SDS011;11203;50.870;20.682;2023-03-01T02:13:36;339.55;;;156.10;;
21761;SDS011;11203;50.870;20.682;2023-03-01T02:16:03;338.52;;;153.60;;
21761;SDS011;11203;50.870;20.682;2023-03-01T02:18:40;344.30;;;157.90;;
21761;SDS011;11203;50.870;20.682;2023-03-01T02:21:24;345.92;;;156.27;;
21761;SDS011;11203;50.870;20.682;2023-03-01T02:26:58;325.15;;;151.70;;
21761;SDS011;11203;50.870;20.682;2023-03-01T02:29:25;327.75;;;150.68;;
21761;SDS011;11203;50.870;20.682;2023-03-01T02:31:54;324.52;;;151.27;;
21761;SDS011;11203;50.870;20.682;2023-03-01T02:34:24;325.45;;;152.25;;
21761;SDS011;11203;50.870;20.682;2023-03-01T02:37:00;353.80;;;157.23;;
21761;SDS011;11203;50.870;20.682;2023-03-01T02:39:40;344.73;;;160.60;;
21761;SDS011;11203;50.870;20.682;2023-03-01T02:42:13;350.23;;;164.48;;
21761;SDS011;11203;50.870;20.682;2023-03-01T02:44:43;357.33;;;165.05;;
21761;SDS011;11203;50.870;20.682;2023-03-01T02:47:10;348.58;;;163.18;;
21761;SDS011;11203;50.870;20.682;2023-03-01T02:49:36;350.85;;;169.18;;
21761;SDS011;11203;50.870;20.682;2023-03-01T02:52:23;330.75;;;161.20;;
21761;SDS011;11203;50.870;20.682;2023-03-01T02:55:12;344.90;;;157.30;;
21761;SDS011;11203;50.870;20.682;2023-03-01T02:57:43;316.83;;;149.07;;
21761;SDS011;11203;50.870;20.682;2023-03-01T03:00:33;346.17;;;156.05;;
21761;SDS011;11203;50.870;20.682;2023-03-01T03:03:12;317.17;;;153.07;;
21761;SDS011;11203;50.870;20.682;2023-03-01T03:05:40;347.42;;;166.80;;
21761;SDS011;11203;50.870;20.682;2023-03-01T03:08:07;320.60;;;155.35;;
21761;SDS011;11203;50.870;20.682;2023-03-01T03:10:34;349.80;;;175.13;;
21761;SDS011;11203;50.870;20.682;2023-03-01T03:13:06;330.50;;;156.68;;
21761;SDS011;11203;50.870;20.682;2023-03-01T03:15:38;341.27;;;155.20;;
21761;SDS011;11203;50.870;20.682;2023-03-01T03:18:12;334.92;;;161.85;;
21761;SDS011;11203;50.870;20.682;2023-03-01T03:20:41;302.73;;;142.93;;
21761;SDS011;11203;50.870;20.682;2023-03-01T03:23:08;315.77;;;155.73;;
21761;SDS011;11203;50.870;20.682;2023-03-01T03:25:35;311.08;;;142.60;;
21761;SDS011;11203;50.870;20.682;2023-03-01T03:28:03;299.30;;;141.10;;
21761;SDS011;11203;50.870;20.682;2023-03-01T03:30:35;288.88;;;135.63;;
21761;SDS011;11203;50.870;20.682;2023-03-01T03:33:04;295.88;;;136.63;;
21761;SDS011;11203;50.870;20.682;2023-03-01T03:35:32;294.75;;;138.90;;
21761;SDS011;11203;50.870;20.682;2023-03-01T03:38:05;311.17;;;136.35;;
21761;SDS011;11203;50.870;20.682;2023-03-01T03:40:41;337.85;;;150.52;;
21761;SDS011;11203;50.870;20.682;2023-03-01T03:43:12;338.10;;;156.60;;
21761;SDS011;11203;50.870;20.682;2023-03-01T03:45:41;347.42;;;158.10;;
21761;SDS011;11203;50.870;20.682;2023-03-01T03:48:09;342.30;;;156.60;;
21761;SDS011;11203;50.870;20.682;2023-03-01T03:50:36;353.17;;;163.68;;
21761;SDS011;11203;50.870;20.682;2023-03-01T03:53:05;350.75;;;164.00;;
21761;SDS011;11203;50.870;20.682;2023-03-01T03:55:36;376.80;;;176.57;;
21761;SDS011;11203;50.870;20.682;2023-03-01T03:58:08;348.88;;;163.88;;
21761;SDS011;11203;50.870;20.682;2023-03-01T04:00:40;365.05;;;170.60;;
21761;SDS011;11203;50.870;20.682;2023-03-01T04:03:11;317.50;;;144.25;;
21761;SDS011;11203;50.870;20.682;2023-03-01T04:05:39;336.00;;;149.70;;
21761;SDS011;11203;50.870;20.682;2023-03-01T04:08:07;348.50;;;157.20;;
21761;SDS011;11203;50.870;20.682;2023-03-01T04:13:06;351.63;;;159.57;;
21761;SDS011;11203;50.870;20.682;2023-03-01T04:15:36;345.02;;;160.40;;
21761;SDS011;11203;50.870;20.682;2023-03-01T04:18:03;347.95;;;159.20;;
21761;SDS011;11203;50.870;20.682;2023-03-01T04:20:31;314.95;;;152.93;;
21761;SDS011;11203;50.870;20.682;2023-03-01T04:23:01;330.55;;;153.73;;
21761;SDS011;11203;50.870;20.682;2023-03-01T04:25:39;334.20;;;153.73;;
21761;SDS011;11203;50.870;20.682;2023-03-01T04:28:08;308.25;;;142.65;;
21761;SDS011;11203;50.870;20.682;2023-03-01T04:30:35;308.90;;;141.13;;
21761;SDS011;11203;50.870;20.682;2023-03-01T04:33:04;295.40;;;136.20;;
21761;SDS011;11203;50.870;20.682;2023-03-01T04:35:32;315.70;;;140.98;;
21761;SDS011;11203;50.870;20.682;2023-03-01T04:38:00;284.88;;;137.00;;
21761;SDS011;11203;50.870;20.682;2023-03-01T04:40:25;272.83;;;134.75;;
21761;SDS011;11203;50.870;20.682;2023-03-01T04:42:52;286.33;;;132.88;;
21761;SDS011;11203;50.870;20.682;2023-03-01T04:45:18;266.48;;;127.63;;
21761;SDS011;11203;50.870;20.682;2023-03-01T04:47:45;325.58;;;160.00;;
21761;SDS011;11203;50.870;20.682;2023-03-01T04:50:13;326.90;;;147.05;;
21761;SDS011;11203;50.870;20.682;2023-03-01T04:52:42;310.00;;;145.60;;
21761;SDS011;11203;50.870;20.682;2023-03-01T04:55:09;332.48;;;158.07;;
21761;SDS011;11203;50.870;20.682;2023-03-01T04:57:36;319.75;;;151.40;;
21761;SDS011;11203;50.870;20.682;2023-03-01T05:00:03;330.80;;;160.93;;
21761;SDS011;11203;50.870;20.682;2023-03-01T05:02:49;287.25;;;138.50;;
21761;SDS011;11203;50.870;20.682;2023-03-01T05:05:20;259.90;;;123.95;;
21761;SDS011;11203;50.870;20.682;2023-03-01T05:07:59;278.83;;;136.57;;
21761;SDS011;11203;50.870;20.682;2023-03-01T05:10:29;457.45;;;212.80;;
21761;SDS011;11203;50.870;20.682;2023-03-01T05:12:57;387.35;;;196.25;;
21761;SDS011;11203;50.870;20.682;2023-03-01T05:15:25;393.83;;;187.05;;
21761;SDS011;11203;50.870;20.682;2023-03-01T05:17:52;357.13;;;172.23;;
21761;SDS011;11203;50.870;20.682;2023-03-01T05:20:20;316.92;;;151.57;;
21761;SDS011;11203;50.870;20.682;2023-03-01T05:22:50;330.88;;;160.38;;
21761;SDS011;11203;50.870;20.682;2023-03-01T05:25:18;328.63;;;156.30;;
21761;SDS011;11203;50.870;20.682;2023-03-01T05:27:44;332.08;;;157.70;;
21761;SDS011;11203;50.870;20.682;2023-03-01T05:30:10;314.13;;;147.15;;
21761;SDS011;11203;50.870;20.682;2023-03-01T05:32:41;285.98;;;136.93;;
21761;SDS011;11203;50.870;20.682;2023-03-01T05:35:13;309.63;;;141.23;;
21761;SDS011;11203;50.870;20.682;2023-03-01T05:37:42;303.55;;;145.10;;
21761;SDS011;11203;50.870;20.682;2023-03-01T05:40:11;302.52;;;139.52;;
21761;SDS011;11203;50.870;20.682;2023-03-01T05:42:47;295.33;;;140.98;;
21761;SDS011;11203;50.870;20.682;2023-03-01T05:45:18;317.50;;;148.85;;
21761;SDS011;11203;50.870;20.682;2023-03-01T05:47:47;334.08;;;155.07;;
21761;SDS011;11203;50.870;20.682;2023-03-01T05:50:16;331.42;;;152.32;;
21761;SDS011;11203;50.870;20.682;2023-03-01T05:52:45;334.48;;;155.07;;
21761;SDS011;11203;50.870;20.682;2023-03-01T05:55:33;326.33;;;154.20;;
21761;SDS011;11203;50.870;20.682;2023-03-01T05:58:02;335.00;;;165.27;;
21761;SDS011;11203;50.870;20.682;2023-03-01T06:00:32;332.77;;;158.52;;
21761;SDS011;11203;50.870;20.682;2023-03-01T06:02:59;315.25;;;151.43;;
21761;SDS011;11203;50.870;20.682;2023-03-01T06:05:25;348.13;;;161.77;;
21761;SDS011;11203;50.870;20.682;2023-03-01T06:07:53;337.80;;;157.88;;
21761;SDS011;11203;50.870;20.682;2023-03-01T06:10:20;355.58;;;159.70;;
21761;SDS011;11203;50.870;20.682;2023-03-01T06:12:47;326.95;;;153.93;;
21761;SDS011;11203;50.870;20.682;2023-03-01T06:15:15;324.77;;;155.82;;
21761;SDS011;11203;50.870;20.682;2023-03-01T06:17:43;344.38;;;162.18;;
21761;SDS011;11203;50.870;20.682;2023-03-01T06:20:12;341.27;;;162.50;;
21761;SDS011;11203;50.870;20.682;2023-03-01T06:22:42;335.90;;;156.25;;
21761;SDS011;11203;50.870;20.682;2023-03-01T06:25:10;344.83;;;165.35;;
21761;SDS011;11203;50.870;20.682;2023-03-01T06:27:39;346.77;;;165.82;;
21761;SDS011;11203;50.870;20.682;2023-03-01T06:30:06;355.50;;;166.75;;
21761;SDS011;11203;50.870;20.682;2023-03-01T06:32:35;349.65;;;165.57;;
21761;SDS011;11203;50.870;20.682;2023-03-01T06:35:02;372.08;;;178.38;;
21761;SDS011;11203;50.870;20.682;2023-03-01T06:37:30;361.23;;;172.80;;
21761;SDS011;11203;50.870;20.682;2023-03-01T06:39:56;361.08;;;172.95;;
21761;SDS011;11203;50.870;20.682;2023-03-01T06:42:22;348.50;;;175.00;;
21761;SDS011;11203;50.870;20.682;2023-03-01T06:44:48;346.80;;;162.65;;
21761;SDS011;11203;50.870;20.682;2023-03-01T06:47:14;311.85;;;155.02;;
21761;SDS011;11203;50.870;20.682;2023-03-01T06:49:40;335.60;;;165.95;;
21761;SDS011;11203;50.870;20.682;2023-03-01T06:52:07;326.52;;;166.93;;
21761;SDS011;11203;50.870;20.682;2023-03-01T06:54:33;337.42;;;171.27;;
21761;SDS011;11203;50.870;20.682;2023-03-01T06:56:59;330.10;;;162.68;;
21761;SDS011;11203;50.870;20.682;2023-03-01T06:59:25;329.05;;;161.00;;
21761;SDS011;11203;50.870;20.682;2023-03-01T07:01:51;325.63;;;154.77;;
21761;SDS011;11203;50.870;20.682;2023-03-01T07:04:17;314.50;;;148.25;;
21761;SDS011;11203;50.870;20.682;2023-03-01T07:06:43;299.83;;;146.57;;
21761;SDS011;11203;50.870;20.682;2023-03-01T07:09:09;304.25;;;150.02;;
21761;SDS011;11203;50.870;20.682;2023-03-01T07:11:35;290.10;;;142.70;;
21761;SDS011;11203;50.870;20.682;2023-03-01T07:14:02;295.05;;;146.35;;
21761;SDS011;11203;50.870;20.682;2023-03-01T07:16:28;270.50;;;130.48;;
21761;SDS011;11203;50.870;20.682;2023-03-01T07:18:54;267.88;;;135.40;;
21761;SDS011;11203;50.870;20.682;2023-03-01T07:21:20;240.98;;;122.47;;
21761;SDS011;11203;50.870;20.682;2023-03-01T07:23:47;237.30;;;123.18;;
21761;SDS011;11203;50.870;20.682;2023-03-01T07:26:14;202.07;;;105.03;;
21761;SDS011;11203;50.870;20.682;2023-03-01T07:28:44;177.90;;;89.40;;
21761;SDS011;11203;50.870;20.682;2023-03-01T07:31:10;167.07;;;86.07;;
21761;SDS011;11203;50.870;20.682;2023-03-01T07:33:36;139.40;;;69.00;;
21761;SDS011;11203;50.870;20.682;2023-03-01T07:36:03;115.32;;;58.10;;
21761;SDS011;11203;50.870;20.682;2023-03-01T07:38:30;165.95;;;84.72;;
21761;SDS011;11203;50.870;20.682;2023-03-01T07:40:58;133.90;;;63.40;;
21761;SDS011;11203;50.870;20.682;2023-03-01T07:43:26;86.43;;;45.83;;
21761;SDS011;11203;50.870;20.682;2023-03-01T07:45:54;107.18;;;53.75;;
21761;SDS011;11203;50.870;20.682;2023-03-01T07:48:20;92.90;;;48.08;;
21761;SDS011;11203;50.870;20.682;2023-03-01T07:50:46;48.33;;;20.00;;
21761;SDS011;11203;50.870;20.682;2023-03-01T07:53:12;104.28;;;49.05;;
21761;SDS011;11203;50.870;20.682;2023-03-01T07:55:38;92.60;;;43.83;;
21761;SDS011;11203;50.870;20.682;2023-03-01T07:58:04;88.40;;;40.40;;
21761;SDS011;11203;50.870;20.682;2023-03-01T08:00:31;89.35;;;44.97;;
21761;SDS011;11203;50.870;20.682;2023-03-01T08:03:00;78.05;;;40.85;;
21761;SDS011;11203;50.870;20.682;2023-03-01T08:05:27;89.80;;;44.80;;
21761;SDS011;11203;50.870;20.682;2023-03-01T08:07:54;89.20;;;43.33;;
21761;SDS011;11203;50.870;20.682;2023-03-01T08:10:20;79.15;;;39.33;;
21761;SDS011;11203;50.870;20.682;2023-03-01T08:12:46;85.28;;;43.30;;
21761;SDS011;11203;50.870;20.682;2023-03-01T08:15:12;56.15;;;28.85;;
21761;SDS011;11203;50.870;20.682;2023-03-01T08:17:39;43.45;;;19.73;;
21761;SDS011;11203;50.870;20.682;2023-03-01T08:20:05;23.13;;;10.57;;
21761;SDS011;11203;50.870;20.682;2023-03-01T08:22:32;44.97;;;18.88;;
21761;SDS011;11203;50.870;20.682;2023-03-01T08:24:58;62.80;;;31.88;;
21761;SDS011;11203;50.870;20.682;2023-03-01T08:27:24;52.08;;;25.80;;
21761;SDS011;11203;50.870;20.682;2023-03-01T08:29:51;22.70;;;12.05;;
21761;SDS011;11203;50.870;20.682;2023-03-01T08:32:17;34.70;;;14.20;;
21761;SDS011;11203;50.870;20.682;2023-03-01T08:34:45;29.80;;;15.52;;
21761;SDS011;11203;50.870;20.682;2023-03-01T08:37:12;45.15;;;23.58;;
21761;SDS011;11203;50.870;20.682;2023-03-01T08:39:39;45.17;;;23.58;;
21761;SDS011;11203;50.870;20.682;2023-03-01T08:42:04;26.85;;;12.88;;
21761;SDS011;11203;50.870;20.682;2023-03-01T08:44:31;23.15;;;11.77;;
21761;SDS011;11203;50.870;20.682;2023-03-01T08:46:56;24.33;;;12.45;;
21761;SDS011;11203;50.870;20.682;2023-03-01T08:49:23;36.95;;;22.23;;
21761;SDS011;11203;50.870;20.682;2023-03-01T08:51:49;38.15;;;20.38;;
21761;SDS011;11203;50.870;20.682;2023-03-01T08:54:20;53.10;;;24.63;;
21761;SDS011;11203;50.870;20.682;2023-03-01T08:56:47;46.40;;;26.85;;
21761;SDS011;11203;50.870;20.682;2023-03-01T08:59:15;44.10;;;21.33;;
21761;SDS011;11203;50.870;20.682;2023-03-01T09:01:42;27.63;;;13.35;;
21761;SDS011;11203;50.870;20.682;2023-03-01T09:04:10;36.35;;;21.23;;
21761;SDS011;11203;50.870;20.682;2023-03-01T09:06:37;22.75;;;12.13;;
21761;SDS011;11203;50.870;20.682;2023-03-01T09:09:04;51.83;;;25.48;;
21761;SDS011;11203;50.870;20.682;2023-03-01T09:11:32;37.40;;;19.58;;
21761;SDS011;11203;50.870;20.682;2023-03-01T09:13:59;36.15;;;19.30;;
21761;SDS011;11203;50.870;20.682;2023-03-01T09:16:25;29.98;;;14.07;;
21761;SDS011;11203;50.870;20.682;2023-03-01T09:18:52;24.15;;;12.60;;
21761;SDS011;11203;50.870;20.682;2023-03-01T09:21:20;41.35;;;21.77;;
21761;SDS011;11203;50.870;20.682;2023-03-01T09:23:48;38.38;;;21.50;;
21761;SDS011;11203;50.870;20.682;2023-03-01T09:26:16;41.85;;;23.55;;
21761;SDS011;11203;50.870;20.682;2023-03-01T09:28:45;41.78;;;25.60;;
21761;SDS011;11203;50.870;20.682;2023-03-01T09:31:12;46.05;;;26.90;;
21761;SDS011;11203;50.870;20.682;2023-03-01T09:33:40;54.38;;;28.45;;
21761;SDS011;11203;50.870;20.682;2023-03-01T09:36:08;39.67;;;19.08;;
21761;SDS011;11203;50.870;20.682;2023-03-01T09:38:46;38.28;;;20.92;;
21761;SDS011;11203;50.870;20.682;2023-03-01T09:43:50;42.88;;;25.65;;
21761;SDS011;11203;50.870;20.682;2023-03-01T09:46:43;30.70;;;15.05;;
21761;SDS011;11203;50.870;20.682;2023-03-01T09:49:18;40.55;;;23.20;;
21761;SDS011;11203;50.870;20.682;2023-03-01T09:54:52;37.15;;;19.90;;
21761;SDS011;11203;50.870;20.682;2023-03-01T09:57:36;29.63;;;16.52;;
21761;SDS011;11203;50.870;20.682;2023-03-01T10:03:27;31.55;;;17.48;;
21761;SDS011;11203;50.870;20.682;2023-03-01T10:11:25;33.33;;;16.52;;
21761;SDS011;11203;50.870;20.682;2023-03-01T10:20:22;32.83;;;17.55;;
21761;SDS011;11203;50.870;20.682;2023-03-01T10:22:52;13.13;;;6.88;;
21761;SDS011;11203;50.870;20.682;2023-03-01T10:28:10;37.53;;;21.80;;
21761;SDS011;11203;50.870;20.682;2023-03-01T10:31:20;34.45;;;21.35;;
21761;SDS011;11203;50.870;20.682;2023-03-01T10:33:53;30.17;;;17.13;;
21761;SDS011;11203;50.870;20.682;2023-03-01T10:36:22;37.15;;;20.77;;
21761;SDS011;11203;50.870;20.682;2023-03-01T10:38:53;34.50;;;19.52;;
21761;SDS011;11203;50.870;20.682;2023-03-01T10:41:23;25.27;;;16.17;;
21761;SDS011;11203;50.870;20.682;2023-03-01T10:43:53;32.33;;;18.60;;
21761;SDS011;11203;50.870;20.682;2023-03-01T10:46:26;40.60;;;21.73;;
21761;SDS011;11203;50.870;20.682;2023-03-01T10:49:13;27.92;;;16.50;;
21761;SDS011;11203;50.870;20.682;2023-03-01T10:51:48;32.33;;;16.52;;
21761;SDS011;11203;50.870;20.682;2023-03-01T10:54:30;33.88;;;17.98;;
21761;SDS011;11203;50.870;20.682;2023-03-01T10:57:02;31.75;;;19.55;;
21761;SDS011;11203;50.870;20.682;2023-03-01T11:02:34;55.75;;;24.60;;
21761;SDS011;11203;50.870;20.682;2023-03-01T11:05:28;20.30;;;9.70;;
21761;SDS011;11203;50.870;20.682;2023-03-01T11:07:53;33.28;;;17.27;;
21761;SDS011;11203;50.870;20.682;2023-03-01T11:10:26;35.72;;;21.25;;
21761;SDS011;11203;50.870;20.682;2023-03-01T11:13:19;35.65;;;21.48;;
21761;SDS011;11203;50.870;20.682;2023-03-01T11:16:05;34.20;;;19.95;;
21761;SDS011;11203;50.870;20.682;2023-03-01T11:18:35;33.38;;;21.63;;
21761;SDS011;11203;50.870;20.682;2023-03-01T11:21:01;34.88;;;20.00;;
21761;SDS011;11203;50.870;20.682;2023-03-01T11:23:30;30.30;;;18.48;;
21761;SDS011;11203;50.870;20.682;2023-03-01T11:26:05;32.63;;;18.95;;
21761;SDS011;11203;50.870;20.682;2023-03-01T11:28:34;11.65;;;7.22;;
21761;SDS011;11203;50.870;20.682;2023-03-01T11:31:06;19.58;;;10.07;;
21761;SDS011;11203;50.870;20.682;2023-03-01T11:41:50;29.35;;;19.10;;
21761;SDS011;11203;50.870;20.682;2023-03-01T11:44:47;30.40;;;17.98;;
21761;SDS011;11203;50.870;20.682;2023-03-01T11:50:42;28.98;;;18.25;;
21761;SDS011;11203;50.870;20.682;2023-03-01T12:02:15;28.20;;;16.58;;
21761;SDS011;11203;50.870;20.682;2023-03-01T12:08:10;17.75;;;8.45;;
21761;SDS011;11203;50.870;20.682;2023-03-01T12:19:57;24.70;;;13.80;;
21761;SDS011;11203;50.870;20.682;2023-03-01T12:23:02;24.38;;;14.88;;
21761;SDS011;11203;50.870;20.682;2023-03-01T12:25:51;25.60;;;15.30;;
21761;SDS011;11203;50.870;20.682;2023-03-01T12:31:38;20.27;;;12.00;;
21761;SDS011;11203;50.870;20.682;2023-03-01T12:48:52;26.92;;;13.73;;
21761;SDS011;11203;50.870;20.682;2023-03-01T12:51:39;19.02;;;13.30;;
21761;SDS011;11203;50.870;20.682;2023-03-01T12:54:16;23.52;;;14.20;;
21761;SDS011;11203;50.870;20.682;2023-03-01T12:57:45;21.25;;;10.07;;
21761;SDS011;11203;50.870;20.682;2023-03-01T13:03:13;29.05;;;14.75;;
21761;SDS011;11203;50.870;20.682;2023-03-01T13:06:11;17.95;;;9.75;;
21761;SDS011;11203;50.870;20.682;2023-03-01T13:08:52;22.65;;;12.95;;
21761;SDS011;11203;50.870;20.682;2023-03-01T13:11:35;22.20;;;13.85;;
21761;SDS011;11203;50.870;20.682;2023-03-01T13:16:46;21.88;;;12.80;;
21761;SDS011;11203;50.870;20.682;2023-03-01T13:19:17;25.23;;;12.65;;
21761;SDS011;11203;50.870;20.682;2023-03-01T13:21:48;20.88;;;13.65;;
21761;SDS011;11203;50.870;20.682;2023-03-01T13:32:35;19.88;;;13.32;;
21761;SDS011;11203;50.870;20.682;2023-03-01T13:37:41;23.30;;;13.35;;
21761;SDS011;11203;50.870;20.682;2023-03-01T13:42:49;22.02;;;11.82;;
21761;SDS011;11203;50.870;20.682;2023-03-01T13:45:34;21.60;;;12.45;;
21761;SDS011;11203;50.870;20.682;2023-03-01T13:48:08;23.92;;;12.35;;
21761;SDS011;11203;50.870;20.682;2023-03-01T13:50:47;18.98;;;12.07;;
21761;SDS011;11203;50.870;20.682;2023-03-01T13:53:21;19.75;;;12.88;;
21761;SDS011;11203;50.870;20.682;2023-03-01T13:55:51;17.85;;;11.57;;
21761;SDS011;11203;50.870;20.682;2023-03-01T13:58:25;22.10;;;11.00;;
21761;SDS011;11203;50.870;20.682;2023-03-01T14:00:58;16.90;;;10.95;;
21761;SDS011;11203;50.870;20.682;2023-03-01T14:03:29;25.45;;;10.52;;
21761;SDS011;11203;50.870;20.682;2023-03-01T14:08:37;18.80;;;10.98;;
21761;SDS011;11203;50.870;20.682;2023-03-01T14:21:45;19.58;;;10.77;;
21761;SDS011;11203;50.870;20.682;2023-03-01T14:24:19;19.08;;;10.57;;
21761;SDS011;11203;50.870;20.682;2023-03-01T14:26:48;18.30;;;10.18;;
21761;SDS011;11203;50.870;20.682;2023-03-01T14:29:34;20.00;;;9.25;;
21761;SDS011;11203;50.870;20.682;2023-03-01T14:34:58;15.95;;;9.98;;
21761;SDS011;11203;50.870;20.682;2023-03-01T14:37:30;16.83;;;8.30;;
21761;SDS011;11203;50.870;20.682;2023-03-01T14:39:59;17.35;;;7.80;;
21761;SDS011;11203;50.870;20.682;2023-03-01T14:42:29;14.48;;;8.63;;
21761;SDS011;11203;50.870;20.682;2023-03-01T14:45:01;16.75;;;8.63;;
21761;SDS011;11203;50.870;20.682;2023-03-01T14:47:33;18.75;;;10.32;;
21761;SDS011;11203;50.870;20.682;2023-03-01T14:50:02;14.65;;;9.07;;
21761;SDS011;11203;50.870;20.682;2023-03-01T14:52:36;13.15;;;8.20;;
21761;SDS011;11203;50.870;20.682;2023-03-01T14:55:07;14.15;;;9.00;;
21761;SDS011;11203;50.870;20.682;2023-03-01T14:57:48;14.45;;;8.68;;
21761;SDS011;11203;50.870;20.682;2023-03-01T15:02:56;12.75;;;8.13;;
21761;SDS011;11203;50.870;20.682;2023-03-01T15:05:38;14.57;;;7.25;;
21761;SDS011;11203;50.870;20.682;2023-03-01T15:08:06;14.82;;;8.10;;
21761;SDS011;11203;50.870;20.682;2023-03-01T15:10:33;12.05;;;6.80;;
21761;SDS011;11203;50.870;20.682;2023-03-01T15:15:48;13.23;;;9.00;;
21761;SDS011;11203;50.870;20.682;2023-03-01T15:18:20;18.17;;;9.60;;
21761;SDS011;11203;50.870;20.682;2023-03-01T15:20:51;12.98;;;8.18;;
21761;SDS011;11203;50.870;20.682;2023-03-01T15:23:28;16.58;;;8.90;;
21761;SDS011;11203;50.870;20.682;2023-03-01T15:25:55;16.35;;;8.75;;
21761;SDS011;11203;50.870;20.682;2023-03-01T15:28:24;20.48;;;10.73;;
21761;SDS011;11203;50.870;20.682;2023-03-01T15:30:57;20.20;;;10.18;;
21761;SDS011;11203;50.870;20.682;2023-03-01T15:33:29;19.90;;;9.88;;
21761;SDS011;11203;50.870;20.682;2023-03-01T15:36:00;21.98;;;11.18;;
21761;SDS011;11203;50.870;20.682;2023-03-01T15:38:58;22.50;;;10.60;;
21761;SDS011;11203;50.870;20.682;2023-03-01T15:41:26;21.83;;;10.63;;
21761;SDS011;11203;50.870;20.682;2023-03-01T15:43:57;17.25;;;9.25;;
21761;SDS011;11203;50.870;20.682;2023-03-01T15:46:31;21.52;;;9.38;;
21761;SDS011;11203;50.870;20.682;2023-03-01T15:49:01;22.88;;;10.65;;
21761;SDS011;11203;50.870;20.682;2023-03-01T15:51:33;20.38;;;9.32;;
21761;SDS011;11203;50.870;20.682;2023-03-01T15:54:06;23.00;;;10.00;;
21761;SDS011;11203;50.870;20.682;2023-03-01T15:56:43;15.50;;;7.63;;
21761;SDS011;11203;50.870;20.682;2023-03-01T15:59:10;18.48;;;9.45;;
21761;SDS011;11203;50.870;20.682;2023-03-01T16:01:38;19.60;;;9.43;;
21761;SDS011;11203;50.870;20.682;2023-03-01T16:04:11;18.55;;;8.52;;
21761;SDS011;11203;50.870;20.682;2023-03-01T16:06:47;21.95;;;9.63;;
21761;SDS011;11203;50.870;20.682;2023-03-01T16:09:24;32.15;;;15.93;;
21761;SDS011;11203;50.870;20.682;2023-03-01T16:11:51;54.00;;;27.27;;
21761;SDS011;11203;50.870;20.682;2023-03-01T16:14:20;75.28;;;32.72;;
21761;SDS011;11203;50.870;20.682;2023-03-01T16:16:46;41.65;;;20.02;;
21761;SDS011;11203;50.870;20.682;2023-03-01T16:19:15;35.42;;;20.58;;
21761;SDS011;11203;50.870;20.682;2023-03-01T16:21:42;28.95;;;14.07;;
21761;SDS011;11203;50.870;20.682;2023-03-01T16:24:09;30.67;;;15.50;;
21761;SDS011;11203;50.870;20.682;2023-03-01T16:26:36;37.13;;;20.33;;